Time;durP1;ratioP1;P1;durP2;ratioP2;P2;SDS_P1;SDS_P2;PMS_P1;PMS_P2;Temp;Humidity;BMP_temperature;BMP_pressure;BME280_temperature;BME280_humidity;BME280_pressure;Samples;Min_cycle;Max_cycle;Signal;HPM_P1;HPM_P2
2023/01/07 00:00:25;;;;;;;4.57;4.20;;;;;;;8.52;100.00;97144.28;5072020;28;20238;-56
2023/01/07 00:02:53;;;;;;;4.67;4.27;;;;;;;8.49;100.00;97140.09;5074219;28;20190;-57
2023/01/07 00:05:19;;;;;;;4.17;3.87;;;;;;;8.50;100.00;97135.66;5073193;28;20206;-57
2023/01/07 00:07:46;;;;;;;4.30;3.97;;;;;;;8.49;100.00;97137.44;5073278;28;20642;-58
2023/01/07 00:10:12;;;;;;;4.73;4.23;;;;;;;8.48;100.00;97129.66;5073492;28;20546;-57
2023/01/07 00:12:39;;;;;;;5.67;4.30;;;;;;;8.46;100.00;97124.50;5073604;28;20554;-58
2023/01/07 00:15:06;;;;;;;4.37;4.07;;;;;;;8.49;100.00;97128.69;5074204;28;20217;-57
2023/01/07 00:17:33;;;;;;;5.10;3.83;;;;;;;8.48;100.00;97129.66;5074562;28;20199;-58
2023/01/07 00:20:01;;;;;;;5.20;3.90;;;;;;;8.44;100.00;97123.78;5074068;28;20515;-57
2023/01/07 00:22:27;;;;;;;4.97;4.30;;;;;;;8.42;100.00;97123.06;5074551;28;20202;-59
2023/01/07 00:24:54;;;;;;;5.00;4.10;;;;;;;8.40;100.00;97118.84;5074208;28;20213;-57
2023/01/07 00:27:20;;;;;;;5.10;4.50;;;;;;;8.42;100.00;97122.22;5074496;28;20214;-57
2023/01/07 00:29:47;;;;;;;5.20;4.70;;;;;;;8.42;100.00;97122.22;5074232;28;20194;-57
2023/01/07 00:32:13;;;;;;;4.50;4.20;;;;;;;8.43;100.00;97116.81;5073850;28;20309;-58
2023/01/07 00:34:39;;;;;;;4.70;4.30;;;;;;;8.41;100.00;97117.91;5071774;28;20206;-59
2023/01/07 00:39:51;;;;;;;5.20;4.80;;;;;;;8.43;100.00;97108.09;5073684;28;20210;-59
2023/01/07 00:45:02;;;;;;;4.97;4.57;;;;;;;8.37;100.00;97104.13;5074597;28;20214;-58
2023/01/07 00:47:29;;;;;;;6.87;4.33;;;;;;;8.37;100.00;97103.28;5074781;28;20195;-58
2023/01/07 00:49:55;;;;;;;5.17;4.77;;;;;;;8.39;100.00;97107.50;5075005;28;20210;-58
2023/01/07 00:52:23;;;;;;;4.90;4.50;;;;;;;8.35;100.00;97108.69;5074021;28;20222;-58
2023/01/07 00:54:50;;;;;;;5.23;4.83;;;;;;;8.34;100.00;97106.16;5074959;28;20199;-58
2023/01/07 00:57:16;;;;;;;5.00;4.60;;;;;;;8.35;100.00;97100.78;5075585;28;20297;-58
2023/01/07 00:59:43;;;;;;;6.07;4.83;;;;;;;8.37;100.00;97096.22;5073073;28;20245;-58
2023/01/07 01:02:09;;;;;;;6.70;4.83;;;;;;;8.35;100.00;97098.16;5073482;28;20202;-58
2023/01/07 01:04:36;;;;;;;6.07;5.10;;;;;;;8.35;100.00;97092.03;5072474;28;20214;-59
2023/01/07 01:07:02;;;;;;;5.60;5.00;;;;;;;8.36;100.00;97088.44;5073105;28;20205;-58
2023/01/07 01:09:30;;;;;;;6.23;5.37;;;;;;;8.33;100.00;97086.88;5073003;28;20206;-57
2023/01/07 01:11:57;;;;;;;5.30;4.90;;;;;;;8.32;100.00;97085.22;5072310;28;20238;-60
2023/01/07 01:14:23;;;;;;;5.47;5.07;;;;;;;8.29;100.00;97084.59;5072994;28;20210;-59
2023/01/07 01:16:50;;;;;;;5.70;5.17;;;;;;;8.29;100.00;97087.25;5072903;28;20214;-58
2023/01/07 01:19:16;;;;;;;7.00;5.37;;;;;;;8.29;100.00;97089.88;5072542;28;20558;-58
2023/01/07 01:21:43;;;;;;;5.57;4.97;;;;;;;8.27;100.00;97081.19;5072929;28;20194;-57
2023/01/07 01:24:09;;;;;;;5.60;5.10;;;;;;;8.24;100.00;97076.16;5072594;28;20701;-57
2023/01/07 01:26:37;;;;;;;5.27;4.87;;;;;;;8.28;100.00;97074.97;5073041;28;20926;-58
2023/01/07 01:29:04;;;;;;;5.60;4.87;;;;;;;8.26;100.00;97079.50;5073807;28;20210;-57
2023/01/07 01:31:30;;;;;;;5.40;4.97;;;;;;;8.28;100.00;97072.34;5072662;28;20205;-58
2023/01/07 01:33:58;;;;;;;5.40;5.00;;;;;;;8.26;100.00;97074.25;5072946;28;20209;-58
2023/01/07 01:36:25;;;;;;;5.47;5.07;;;;;;;8.26;100.00;97074.25;5072870;28;20566;-59
2023/01/07 01:38:52;;;;;;;5.53;5.13;;;;;;;8.29;100.00;97074.06;5072527;28;20209;-57
2023/01/07 01:41:18;;;;;;;6.00;5.43;;;;;;;8.24;100.00;97071.75;5072261;28;20211;-58
2023/01/07 01:43:46;;;;;;;5.77;4.90;;;;;;;8.26;100.00;97069.81;5072141;28;20207;-57
2023/01/07 01:46:15;;;;;;;5.00;4.60;;;;;;;8.27;100.00;97078.56;5072340;28;20217;-57
2023/01/07 01:48:46;;;;;;;5.40;4.90;;;;;;;8.26;100.00;97068.97;5072454;28;20211;-57
2023/01/07 01:51:13;;;;;;;6.20;4.90;;;;;;;8.21;100.00;97072.00;5071887;28;20202;-57
2023/01/07 01:53:40;;;;;;;5.47;5.07;;;;;;;8.26;100.00;97068.97;5071713;28;20210;-58
2023/01/07 01:56:10;;;;;;;6.10;5.27;;;;;;;8.25;100.00;97064.69;5071620;28;20214;-57
2023/01/07 01:58:40;;;;;;;6.00;5.40;;;;;;;8.26;100.00;97068.97;5071521;28;20210;-58
2023/01/07 02:01:08;;;;;;;5.73;5.23;;;;;;;8.24;100.00;97066.47;5071348;28;20249;-58
2023/01/07 02:03:36;;;;;;;5.57;5.07;;;;;;;8.19;100.00;97062.50;5071643;28;20203;-57
2023/01/07 02:06:03;;;;;;;5.87;5.30;;;;;;;8.19;100.00;97059.88;5071192;28;20639;-57
2023/01/07 02:08:30;;;;;;;5.10;4.70;;;;;;;8.18;100.00;97060.84;5071740;28;20207;-58
2023/01/07 02:11:10;;;;;;;6.73;5.70;;;;;;;8.21;100.00;97055.34;5071120;28;20195;-57
2023/01/07 02:13:47;;;;;;;7.13;6.37;;;;;;;8.25;100.00;97057.63;5071929;28;20214;-57
2023/01/07 02:16:19;;;;;;;6.63;5.90;;;;;;;8.24;100.00;97050.66;5073668;28;20206;-58
2023/01/07 02:18:59;;;;;;;7.10;6.50;;;;;;;8.25;100.00;97049.72;5070855;28;20237;-57
2023/01/07 02:21:36;;;;;;;11.53;10.43;;;;;;;8.30;100.00;97049.38;5070988;28;20519;-58
2023/01/07 02:24:49;;;;;;;7.27;6.67;;;;;;;8.34;100.00;97035.84;5070222;28;20518;-58
2023/01/07 02:27:23;;;;;;;6.80;6.20;;;;;;;8.38;100.00;97039.09;5070904;28;20578;-57
2023/01/07 02:30:20;;;;;;;8.23;5.73;;;;;;;8.39;100.00;97038.97;5071591;28;20256;-58
2023/01/07 02:33:04;;;;;;;6.67;6.00;;;;;;;8.34;100.00;97035.84;5062066;28;20226;-57
2023/01/07 02:35:41;;;;;;;6.53;5.93;;;;;;;8.33;100.00;97028.91;5071496;28;20210;-57
2023/01/07 02:38:15;;;;;;;5.60;5.20;;;;;;;8.40;100.00;97029.25;5070756;28;20205;-58
2023/01/07 02:40:47;;;;;;;6.53;5.93;;;;;;;8.45;100.00;97021.84;5070707;28;20205;-57
2023/01/07 02:43:19;;;;;;;6.80;6.20;;;;;;;8.45;100.00;97022.66;5070996;28;20615;-58
2023/01/07 02:45:48;;;;;;;7.00;6.40;;;;;;;8.44;100.00;97014.88;5070812;28;20194;-58
2023/01/07 02:48:18;;;;;;;6.30;5.80;;;;;;;8.42;100.00;97012.38;5071304;28;20213;-57
2023/01/07 02:50:45;;;;;;;6.63;6.07;;;;;;;8.41;100.00;97017.75;5070951;28;20210;-57
2023/01/07 02:53:15;;;;;;;7.00;6.00;;;;;;;8.36;100.00;97006.75;5070814;28;20234;-58
2023/01/07 02:55:49;;;;;;;6.00;5.40;;;;;;;8.35;100.00;96999.81;5070349;28;20202;-58
2023/01/07 02:58:43;;;;;;;7.00;6.40;;;;;;;8.35;100.00;96994.53;5071334;28;20685;-57
2023/01/07 03:01:32;;;;;;;6.77;6.27;;;;;;;8.30;100.00;96999.31;5071014;28;20242;-57
2023/01/07 03:04:20;;;;;;;6.57;6.00;;;;;;;8.33;100.00;96996.44;5060923;28;20535;-58
2023/01/07 03:06:57;;;;;;;7.33;6.47;;;;;;;8.31;100.00;96995.72;5073082;28;20646;-58
2023/01/07 03:09:30;;;;;;;6.60;6.00;;;;;;;8.33;100.00;96999.06;5074488;28;20197;-57
2023/01/07 03:12:00;;;;;;;6.83;6.23;;;;;;;8.28;100.00;96999.44;5074227;28;20516;-58
2023/01/07 03:14:34;;;;;;;6.63;6.03;;;;;;;8.27;100.00;96995.09;5074660;28;20604;-58
2023/01/07 03:17:06;;;;;;;6.67;6.10;;;;;;;8.22;100.00;96999.88;5075333;28;20620;-58
2023/01/07 03:19:35;;;;;;;6.70;6.10;;;;;;;8.27;100.00;96986.34;5077770;28;20202;-58
2023/01/07 03:22:05;;;;;;;7.00;6.30;;;;;;;8.26;100.00;96979.41;5078116;28;20206;-58
2023/01/07 03:24:33;;;;;;;6.07;5.57;;;;;;;8.20;100.00;96979.88;5075510;28;20206;-57
2023/01/07 03:27:01;;;;;;;6.63;6.03;;;;;;;8.23;100.00;96984.91;5074244;28;20217;-58
2023/01/07 03:29:30;;;;;;;7.03;6.43;;;;;;;8.22;100.00;96970.88;5071385;28;20643;-57
2023/01/07 03:31:59;;;;;;;7.00;6.50;;;;;;;8.18;100.00;96972.13;5071171;28;20233;-58
2023/01/07 03:34:27;;;;;;;6.50;6.00;;;;;;;8.22;100.00;96970.88;5073270;28;20206;-59
2023/01/07 03:36:58;;;;;;;7.17;6.57;;;;;;;8.21;100.00;96966.59;5075447;28;20302;-58
2023/01/07 03:39:26;;;;;;;6.83;6.33;;;;;;;8.25;100.00;96964.56;5073747;28;20199;-57
2023/01/07 03:44:44;;;;;;;6.73;6.20;;;;;;;8.22;100.00;96962.19;5058608;28;20278;-57
2023/01/07 03:47:11;;;;;;;7.70;7.00;;;;;;;8.21;100.00;96958.69;5074365;28;20213;-57
2023/01/07 03:49:37;;;;;;;6.40;5.90;;;;;;;8.19;100.00;96957.13;5074440;28;20206;-57
2023/01/07 03:52:05;;;;;;;6.63;6.03;;;;;;;8.21;100.00;96942.91;5074240;28;20206;-58
2023/01/07 03:54:32;;;;;;;6.60;6.00;;;;;;;8.22;100.00;96946.38;5074025;28;20285;-58
2023/01/07 03:56:58;;;;;;;6.67;6.07;;;;;;;8.19;100.00;96941.31;5074045;28;20218;-57
2023/01/07 03:59:25;;;;;;;6.33;5.60;;;;;;;8.19;100.00;96941.31;5074029;28;20206;-57
2023/01/07 04:01:51;;;;;;;7.17;5.73;;;;;;;8.18;100.00;96937.03;5073828;28;20202;-57
2023/01/07 04:04:18;;;;;;;5.93;5.40;;;;;;;8.14;100.00;96935.59;5074000;28;20202;-58
2023/01/07 04:06:44;;;;;;;5.97;5.40;;;;;;;8.12;100.00;96935.69;5074275;28;21357;-57
2023/01/07 04:09:13;;;;;;;6.23;5.60;;;;;;;8.14;100.00;96928.53;5073675;28;20202;-58
2023/01/07 04:11:40;;;;;;;6.10;5.60;;;;;;;8.16;100.00;96928.41;5073704;28;20695;-57
2023/01/07 04:14:06;;;;;;;6.20;5.60;;;;;;;8.15;100.00;96926.75;5073653;28;20230;-58
2023/01/07 04:16:33;;;;;;;6.37;5.77;;;;;;;8.16;100.00;96920.50;5073517;28;20210;-58
2023/01/07 04:18:59;;;;;;;5.97;5.57;;;;;;;8.12;100.00;96919.06;5073637;28;20202;-58
2023/01/07 04:21:26;;;;;;;5.73;5.23;;;;;;;8.15;100.00;96918.84;5073540;28;20662;-57
2023/01/07 04:23:52;;;;;;;5.70;5.20;;;;;;;8.13;100.00;96910.19;5073614;28;20213;-57
2023/01/07 04:26:20;;;;;;;5.27;4.87;;;;;;;8.16;100.00;96912.59;5073513;28;20214;-57
2023/01/07 04:28:47;;;;;;;6.77;5.80;;;;;;;8.12;100.00;96909.38;5073685;28;20226;-57
2023/01/07 04:31:13;;;;;;;6.10;5.57;;;;;;;8.11;100.00;96907.72;5073472;28;20222;-57
2023/01/07 04:33:40;;;;;;;5.90;5.40;;;;;;;8.14;100.00;96901.34;5073738;28;20237;-58
2023/01/07 04:36:06;;;;;;;6.00;5.50;;;;;;;8.12;100.00;96905.88;5072973;28;20210;-57
2023/01/07 04:38:33;;;;;;;5.80;5.30;;;;;;;8.14;100.00;96904.81;5074539;28;20300;-58
2023/01/07 04:40:59;;;;;;;6.10;5.60;;;;;;;8.11;100.00;96902.44;5075755;28;20210;-57
2023/01/07 04:43:27;;;;;;;6.70;6.13;;;;;;;8.10;100.00;96899.91;5076192;28;20198;-57
2023/01/07 04:45:54;;;;;;;5.83;5.33;;;;;;;8.10;100.00;96895.50;5073250;28;20214;-57
2023/01/07 04:48:20;;;;;;;6.63;6.13;;;;;;;8.08;100.00;96896.56;5073462;28;20207;-57
2023/01/07 04:50:47;;;;;;;7.00;6.40;;;;;;;8.06;100.00;96895.84;5073282;28;20210;-57
2023/01/07 04:53:13;;;;;;;8.07;7.37;;;;;;;8.06;100.00;96893.22;5072953;28;20314;-58
2023/01/07 04:55:40;;;;;;;7.53;6.83;;;;;;;8.05;100.00;96894.16;5072733;28;20202;-57
2023/01/07 04:58:06;;;;;;;7.83;7.13;;;;;;;8.01;100.00;96889.13;5072495;28;20680;-57
2023/01/07 05:00:34;;;;;;;7.47;6.87;;;;;;;8.10;100.00;96892.00;5072636;28;20594;-58
2023/01/07 05:03:01;;;;;;;7.73;7.13;;;;;;;8.13;100.00;96891.75;5072508;28;20202;-58
2023/01/07 05:05:27;;;;;;;7.77;7.10;;;;;;;8.13;100.00;96883.88;5072488;28;20651;-57
2023/01/07 05:07:54;;;;;;;6.97;6.27;;;;;;;8.14;100.00;96890.81;5073006;28;20210;-58
2023/01/07 05:10:20;;;;;;;5.70;5.30;;;;;;;8.15;100.00;96887.22;5072256;28;20195;-57
2023/01/07 05:12:47;;;;;;;6.10;5.17;;;;;;;8.13;100.00;96875.97;5072705;28;20222;-57
2023/01/07 05:15:13;;;;;;;5.97;5.47;;;;;;;8.10;100.00;96878.84;5072113;28;20206;-58
2023/01/07 05:17:41;;;;;;;7.10;6.50;;;;;;;8.05;100.00;96876.56;5072902;28;20214;-57
2023/01/07 05:20:08;;;;;;;7.57;6.97;;;;;;;8.08;100.00;96878.13;5072507;28;20206;-58
2023/01/07 05:22:35;;;;;;;6.40;5.90;;;;;;;8.06;100.00;96872.13;5072737;28;20218;-57
2023/01/07 05:25:01;;;;;;;6.60;6.10;;;;;;;8.03;100.00;96875.88;5071698;28;20665;-57
2023/01/07 05:27:28;;;;;;;7.23;6.63;;;;;;;8.01;100.00;96875.97;5072303;28;20202;-57
2023/01/07 05:29:55;;;;;;;7.80;7.20;;;;;;;8.02;100.00;96864.47;5072450;28;20209;-57
2023/01/07 05:32:21;;;;;;;7.83;7.03;;;;;;;7.99;100.00;96872.63;5072505;28;20194;-57
2023/01/07 05:34:49;;;;;;;6.87;6.27;;;;;;;7.99;100.00;96874.44;5072283;28;20230;-57
2023/01/07 05:37:16;;;;;;;6.60;6.00;;;;;;;7.97;100.00;96871.91;5072249;28;20199;-57
2023/01/07 05:39:42;;;;;;;6.87;6.27;;;;;;;7.96;100.00;96864.97;5071155;28;20217;-58
2023/01/07 05:42:08;;;;;;;6.67;6.07;;;;;;;7.96;100.00;96867.63;5071674;28;20203;-57
2023/01/07 05:44:35;;;;;;;6.60;6.10;;;;;;;7.96;100.00;96869.41;5072100;28;20229;-57
2023/01/07 05:47:03;;;;;;;6.67;6.17;;;;;;;7.96;100.00;96851.81;5072199;28;20210;-56
2023/01/07 05:49:30;;;;;;;6.90;6.40;;;;;;;7.94;100.00;96860.78;5073000;28;20290;-57
2023/01/07 05:51:57;;;;;;;6.60;5.90;;;;;;;7.91;100.00;96867.13;5071933;28;20744;-57
2023/01/07 05:54:24;;;;;;;7.03;6.40;;;;;;;7.93;100.00;96867.88;5072474;28;20230;-57
2023/01/07 05:56:50;;;;;;;6.47;5.97;;;;;;;7.95;100.00;96871.19;5072754;28;20224;-57
2023/01/07 05:59:17;;;;;;;6.40;5.90;;;;;;;7.96;100.00;96862.34;5072262;28;20198;-57
2023/01/07 06:01:43;;;;;;;6.60;6.10;;;;;;;7.97;100.00;96866.63;5072216;28;20206;-57
2023/01/07 06:04:11;;;;;;;6.57;6.07;;;;;;;7.98;100.00;96863.06;5072587;28;20198;-58
2023/01/07 06:06:37;;;;;;;7.40;6.80;;;;;;;7.94;100.00;96860.78;5072904;28;20221;-57
2023/01/07 06:09:05;;;;;;;7.10;6.50;;;;;;;8.05;100.00;96862.56;5072693;28;20210;-58
2023/01/07 06:11:32;;;;;;;7.00;6.40;;;;;;;8.09;100.00;96866.63;5072881;28;20293;-57
2023/01/07 06:13:58;;;;;;;6.50;6.00;;;;;;;8.04;100.00;96853.84;5072273;28;20245;-57
2023/01/07 06:16:25;;;;;;;7.83;7.03;;;;;;;8.01;100.00;96854.91;5071893;28;20209;-56
2023/01/07 06:18:51;;;;;;;6.77;6.17;;;;;;;7.98;100.00;96862.22;5071414;28;20701;-57
2023/01/07 06:21:18;;;;;;;6.90;6.33;;;;;;;7.99;100.00;96851.56;5072048;28;20206;-57
2023/01/07 06:23:45;;;;;;;6.50;6.00;;;;;;;7.98;100.00;96854.31;5072483;28;20267;-58
2023/01/07 06:26:13;;;;;;;6.53;6.00;;;;;;;8.00;100.00;96862.94;5071498;28;20210;-57
2023/01/07 06:28:39;;;;;;;6.47;5.80;;;;;;;7.97;100.00;96858.72;5071503;28;21268;-57
2023/01/07 06:31:06;;;;;;;6.60;6.00;;;;;;;7.98;100.00;96854.31;5072191;28;20214;-57
2023/01/07 06:33:32;;;;;;;6.10;5.60;;;;;;;8.04;100.00;96855.63;5072937;28;20548;-57
2023/01/07 06:35:59;;;;;;;5.90;5.50;;;;;;;8.04;100.00;96843.31;5072407;28;20209;-56
2023/01/07 06:38:25;;;;;;;6.13;5.63;;;;;;;8.07;100.00;96843.06;5071827;28;20217;-57
2023/01/07 06:40:52;;;;;;;6.33;5.83;;;;;;;8.05;100.00;96847.59;5072285;28;20217;-57
2023/01/07 06:43:20;;;;;;;5.93;5.43;;;;;;;8.00;100.00;96834.81;5072037;28;20194;-57
2023/01/07 06:45:46;;;;;;;7.07;6.47;;;;;;;8.03;100.00;96839.00;5072201;28;20524;-57
2023/01/07 06:48:13;;;;;;;7.13;6.53;;;;;;;8.05;100.00;96844.13;5071854;28;20198;-57
2023/01/07 06:50:39;;;;;;;7.50;6.80;;;;;;;8.05;100.00;96844.13;5072930;28;20206;-60
2023/01/07 06:53:06;;;;;;;6.17;5.67;;;;;;;8.04;100.00;96837.19;5071806;28;20198;-58
2023/01/07 06:55:32;;;;;;;7.40;6.80;;;;;;;8.05;100.00;96837.06;5072664;28;20199;-57
2023/01/07 06:57:59;;;;;;;7.23;6.63;;;;;;;8.08;100.00;96841.28;5072692;28;20206;-57
2023/01/07 07:00:27;;;;;;;7.20;6.60;;;;;;;8.09;100.00;96838.50;5072357;28;20238;-58
2023/01/07 07:02:54;;;;;;;7.73;7.13;;;;;;;8.02;100.00;96838.16;5070996;28;20225;-57
2023/01/07 07:05:21;;;;;;;7.27;6.67;;;;;;;8.04;100.00;96842.47;5073245;28;20207;-57
2023/01/07 07:07:47;;;;;;;7.07;6.47;;;;;;;8.05;100.00;96836.22;5073969;28;20225;-58
2023/01/07 07:10:14;;;;;;;7.60;6.83;;;;;;;8.05;100.00;96836.22;5072870;28;20560;-57
2023/01/07 07:12:40;;;;;;;6.83;6.23;;;;;;;8.08;100.00;96831.53;5071831;28;20212;-57
2023/01/07 07:15:08;;;;;;;6.40;5.80;;;;;;;8.12;100.00;96837.41;5070712;28;20226;-57
2023/01/07 07:17:36;;;;;;;7.00;6.40;;;;;;;8.08;100.00;96842.06;5070290;28;20203;-57
2023/01/07 07:20:03;;;;;;;6.90;6.30;;;;;;;8.12;100.00;96838.25;5070657;28;20202;-57
2023/01/07 07:22:29;;;;;;;6.50;6.00;;;;;;;8.13;100.00;96836.44;5070568;28;20527;-57
2023/01/07 07:24:56;;;;;;;6.77;6.07;;;;;;;8.12;100.00;96832.13;5070678;28;20541;-58
2023/01/07 07:27:22;;;;;;;6.97;6.40;;;;;;;8.15;100.00;96834.53;5071201;28;20237;-58
2023/01/07 07:29:49;;;;;;;6.77;6.17;;;;;;;8.15;100.00;96839.81;5071540;28;20233;-58
2023/01/07 07:32:15;;;;;;;6.73;6.13;;;;;;;8.20;100.00;96832.38;5072025;28;20221;-58
2023/01/07 07:34:43;;;;;;;7.40;6.80;;;;;;;8.20;100.00;96825.31;5072657;28;20256;-57
2023/01/07 07:37:10;;;;;;;7.63;7.03;;;;;;;8.17;100.00;96835.25;5070592;28;20512;-58
2023/01/07 07:39:36;;;;;;;6.60;6.10;;;;;;;8.20;100.00;96832.38;5070249;28;20273;-58
2023/01/07 07:42:03;;;;;;;7.60;7.00;;;;;;;8.13;98.91;96832.03;5070369;28;20195;-57
2023/01/07 07:44:30;;;;;;;7.73;7.10;;;;;;;8.09;100.00;96833.22;5070247;28;20221;-57
2023/01/07 07:46:56;;;;;;;7.50;6.90;;;;;;;8.12;100.00;96824.22;5070000;28;20202;-57
2023/01/07 07:49:23;;;;;;;7.40;6.80;;;;;;;8.15;100.00;96830.09;5070914;28;20214;-57
2023/01/07 07:51:51;;;;;;;7.97;7.27;;;;;;;8.17;100.00;96827.34;5070250;28;20206;-58
2023/01/07 07:54:17;;;;;;;7.30;6.70;;;;;;;8.11;100.00;96830.47;5069716;28;20670;-57
2023/01/07 07:56:44;;;;;;;7.37;6.67;;;;;;;8.10;100.00;96829.63;5070430;28;20202;-57
2023/01/07 07:59:10;;;;;;;7.47;6.87;;;;;;;8.12;100.00;96830.34;5070354;28;20207;-57
2023/01/07 08:01:37;;;;;;;7.40;6.70;;;;;;;8.13;100.00;96828.56;5069946;28;21600;-57
2023/01/07 08:04:03;;;;;;;8.10;7.30;;;;;;;8.18;100.00;96829.03;5070468;28;20199;-56
2023/01/07 08:06:30;;;;;;;7.50;6.90;;;;;;;8.13;100.00;96820.66;5070092;28;20198;-57
2023/01/07 08:08:58;;;;;;;8.00;7.30;;;;;;;8.12;100.00;96822.44;5070232;28;20206;-57
2023/01/07 08:11:24;;;;;;;8.07;7.27;;;;;;;8.15;100.00;96822.19;5070200;28;20515;-58
2023/01/07 08:13:50;;;;;;;7.17;6.57;;;;;;;8.18;100.00;96818.50;5069190;28;20250;-57
2023/01/07 08:16:17;;;;;;;7.67;7.03;;;;;;;8.20;100.00;96817.41;5070348;28;20210;-57
2023/01/07 08:18:43;;;;;;;7.90;7.20;;;;;;;8.25;100.00;96814.41;5069673;28;20210;-57
2023/01/07 08:21:10;;;;;;;8.20;7.50;;;;;;;8.25;100.00;96815.25;5071330;28;21026;-57
2023/01/07 08:23:36;;;;;;;8.03;7.27;;;;;;;8.28;99.88;96814.16;5073781;28;20547;-57
2023/01/07 08:26:04;;;;;;;7.50;6.80;;;;;;;8.35;100.00;96820.63;5073208;28;20279;-56
2023/01/07 08:28:32;;;;;;;8.10;7.47;;;;;;;8.37;100.00;96816.03;5074035;28;20213;-56
2023/01/07 08:31:01;;;;;;;7.90;7.30;;;;;;;8.34;99.29;96813.66;5073743;28;20210;-58
2023/01/07 08:33:27;;;;;;;7.67;7.07;;;;;;;8.32;100.00;96815.59;5073820;28;20214;-58
2023/01/07 08:35:54;;;;;;;7.03;6.33;;;;;;;8.36;100.00;96817.03;5073383;28;20293;-58
2023/01/07 08:38:20;;;;;;;7.50;6.90;;;;;;;8.39;100.00;96814.16;5073602;28;20238;-57
2023/01/07 08:40:47;;;;;;;7.37;6.77;;;;;;;8.42;98.77;96819.16;5073341;28;20210;-57
2023/01/07 08:43:14;;;;;;;8.30;7.50;;;;;;;8.37;99.20;96808.16;5073545;28;20198;-56
2023/01/07 08:45:43;;;;;;;7.33;6.73;;;;;;;8.46;98.74;96816.16;5073115;28;21427;-57
2023/01/07 08:48:09;;;;;;;7.60;7.00;;;;;;;8.52;97.86;96811.31;5073549;28;20217;-57
2023/01/07 08:50:35;;;;;;;7.80;7.10;;;;;;;8.50;96.26;96806.19;5074097;28;20211;-57
2023/01/07 08:53:02;;;;;;;7.40;6.80;;;;;;;8.52;95.57;96806.91;5073311;28;20636;-57
2023/01/07 08:55:28;;;;;;;7.70;7.00;;;;;;;8.55;96.09;96805.78;5075076;28;20231;-57
2023/01/07 08:57:55;;;;;;;6.93;6.40;;;;;;;8.58;97.00;96800.25;5075171;28;20211;-57
2023/01/07 09:00:24;;;;;;;7.00;6.40;;;;;;;8.55;96.91;96803.16;5074485;28;20572;-58
2023/01/07 09:02:50;;;;;;;7.20;6.53;;;;;;;8.58;95.46;96798.47;5074916;28;20198;-57
2023/01/07 09:05:17;;;;;;;7.00;6.43;;;;;;;8.57;98.14;96804.72;5075724;28;20615;-58
2023/01/07 09:07:44;;;;;;;7.33;6.73;;;;;;;8.56;96.35;96804.84;5076174;28;20211;-57
2023/01/07 09:10:10;;;;;;;7.50;6.80;;;;;;;8.60;96.09;96803.63;5078384;28;20199;-57
2023/01/07 09:12:37;;;;;;;7.37;6.77;;;;;;;8.65;95.92;96806.69;5073083;28;20214;-58
2023/01/07 09:15:04;;;;;;;7.40;6.80;;;;;;;8.71;93.40;96806.22;5072817;28;20226;-57
2023/01/07 09:17:32;;;;;;;7.37;6.70;;;;;;;8.70;95.70;96804.53;5072467;28;20222;-58
2023/01/07 09:20:02;;;;;;;7.60;6.90;;;;;;;8.74;94.08;96809.44;5072186;28;20635;-57
2023/01/07 09:22:28;;;;;;;7.07;6.47;;;;;;;8.77;95.78;96806.53;5072099;28;20217;-58
2023/01/07 09:24:55;;;;;;;7.10;6.50;;;;;;;8.76;93.67;96810.13;5072539;28;20199;-57
2023/01/07 09:27:21;;;;;;;7.60;6.30;;;;;;;8.85;94.97;96804.09;5072360;28;20207;-57
2023/01/07 09:29:48;;;;;;;7.20;6.60;;;;;;;8.91;92.95;96813.28;5072840;28;20263;-57
2023/01/07 09:32:15;;;;;;;7.03;6.43;;;;;;;8.89;93.08;96800.22;5072485;28;20203;-56
2023/01/07 09:34:43;;;;;;;6.80;6.20;;;;;;;8.96;94.60;96804.00;5073477;28;20245;-57
2023/01/07 09:37:09;;;;;;;6.83;6.20;;;;;;;9.05;91.79;96806.84;5074362;28;20206;-57
2023/01/07 09:39:35;;;;;;;7.50;6.90;;;;;;;8.94;91.87;96805.97;5072338;28;20198;-57
2023/01/07 09:42:07;;;;;;;6.20;5.70;;;;;;;9.03;94.26;96801.72;5072056;28;20225;-57
2023/01/07 09:44:45;;;;;;;7.27;6.67;;;;;;;9.00;91.42;96805.44;5072473;28;20233;-57
2023/01/07 09:47:12;;;;;;;6.80;6.27;;;;;;;9.00;91.38;96807.22;5072010;28;20203;-56
2023/01/07 09:49:40;;;;;;;8.20;7.50;;;;;;;9.04;91.82;96811.28;5072426;28;20505;-57
2023/01/07 09:52:11;;;;;;;7.13;6.53;;;;;;;9.06;91.48;96816.44;5071828;28;20210;-57
2023/01/07 09:54:39;;;;;;;7.53;6.83;;;;;;;9.06;90.75;96811.16;5071582;28;20218;-57
2023/01/07 09:57:06;;;;;;;7.40;6.80;;;;;;;8.98;90.15;96804.75;5072130;28;20765;-58
2023/01/07 09:59:32;;;;;;;7.37;6.77;;;;;;;9.03;91.14;96800.88;5071282;28;20521;-57
2023/01/07 10:02:04;;;;;;;7.67;6.97;;;;;;;9.03;89.92;96806.16;5071594;28;20221;-57
2023/01/07 10:04:38;;;;;;;8.00;7.20;;;;;;;8.98;90.24;96804.75;5071920;28;20546;-56
2023/01/07 10:07:17;;;;;;;7.90;7.23;;;;;;;8.93;90.21;96801.63;5072156;28;20209;-57
2023/01/07 10:09:51;;;;;;;7.03;6.50;;;;;;;8.98;90.99;96799.47;5071437;28;20198;-58
2023/01/07 10:12:24;;;;;;;7.97;7.17;;;;;;;9.07;90.88;96797.03;5071266;28;20203;-57
2023/01/07 10:15:05;;;;;;;7.73;7.00;;;;;;;9.13;91.36;96792.06;5071289;28;20225;-57
2023/01/07 10:17:43;;;;;;;7.50;6.90;;;;;;;9.17;91.10;96795.28;5071312;28;20202;-57
2023/01/07 10:20:15;;;;;;;7.30;6.70;;;;;;;9.81;90.12;96794.00;5071426;28;20195;-57
2023/01/07 10:22:48;;;;;;;7.40;6.80;;;;;;;10.62;85.85;96776.19;5071008;28;20645;-56
2023/01/07 10:25:18;;;;;;;7.70;7.00;;;;;;;11.32;80.50;96773.97;5070551;28;20199;-57
2023/01/07 10:27:46;;;;;;;7.30;6.70;;;;;;;12.08;78.16;96773.81;5071482;28;20202;-57
2023/01/07 10:30:15;;;;;;;7.27;6.73;;;;;;;12.76;74.03;96770.47;5070834;28;20266;-57
2023/01/07 10:32:41;;;;;;;7.07;6.47;;;;;;;13.04;71.54;96762.41;5071395;28;20221;-57
2023/01/07 10:35:16;;;;;;;7.43;6.83;;;;;;;13.61;67.89;96759.09;5070982;28;20225;-58
2023/01/07 10:37:44;;;;;;;6.80;6.23;;;;;;;13.58;67.29;96764.75;5071214;28;20213;-58
2023/01/07 10:40:29;;;;;;;6.63;6.13;;;;;;;13.59;67.47;96750.47;5069960;28;20195;-58
2023/01/07 10:43:01;;;;;;;6.60;6.10;;;;;;;13.23;66.98;96748.94;5070530;28;20198;-57
2023/01/07 10:45:54;;;;;;;6.40;5.90;;;;;;;13.35;68.45;96755.66;5071115;28;20217;-58
2023/01/07 10:48:31;;;;;;;6.67;6.17;;;;;;;13.47;66.62;96751.72;5063383;28;20206;-58
2023/01/07 10:51:09;;;;;;;6.90;6.40;;;;;;;13.47;65.56;96741.09;5070910;28;20537;-58
2023/01/07 10:53:45;;;;;;;6.90;6.20;;;;;;;13.11;67.88;96739.59;5070413;28;20202;-56
2023/01/07 10:56:21;;;;;;;7.00;6.50;;;;;;;12.49;68.86;96738.75;5070725;28;20214;-56
2023/01/07 10:58:49;;;;;;;6.47;5.97;;;;;;;12.76;68.11;96730.66;5071026;28;20202;-57
2023/01/07 11:01:21;;;;;;;6.55;6.05;;;;;;;12.99;68.82;96736.31;5070361;28;20230;-58
2023/01/07 11:03:50;;;;;;;6.88;6.25;;;;;;;12.83;68.47;96731.72;5070487;28;20286;-58
2023/01/07 11:06:19;;;;;;;6.47;5.97;;;;;;;12.70;68.99;96723.31;5069867;28;20217;-58
2023/01/07 11:08:48;;;;;;;6.72;6.13;;;;;;;12.40;68.97;96723.72;5070605;28;21366;-58
2023/01/07 11:11:16;;;;;;;6.60;6.10;;;;;;;12.52;68.91;96724.31;5068878;28;20289;-59
2023/01/07 11:13:51;;;;;;;6.60;5.97;;;;;;;12.44;70.72;96722.44;5069975;28;20655;-58
2023/01/07 11:16:20;;;;;;;6.30;5.80;;;;;;;12.33;70.94;96714.72;5069978;28;20300;-57
2023/01/07 11:18:51;;;;;;;6.80;6.10;;;;;;;12.10;70.99;96713.50;5070920;28;20272;-56
2023/01/07 11:21:31;;;;;;;6.32;5.82;;;;;;;11.83;70.83;96704.59;5071449;28;20206;-55
2023/01/07 11:24:00;;;;;;;6.50;6.00;;;;;;;11.97;71.60;96712.03;5069389;28;20213;-56
2023/01/07 11:26:28;;;;;;;6.60;6.10;;;;;;;11.89;71.10;96692.59;5068942;28;20575;-58
2023/01/07 11:28:56;;;;;;;6.22;5.72;;;;;;;11.73;72.28;96693.25;5073087;28;20209;-58
2023/01/07 11:31:41;;;;;;;6.97;6.37;;;;;;;11.52;73.36;96692.63;5072132;28;20289;-58
2023/01/07 11:34:16;;;;;;;6.77;6.27;;;;;;;11.43;75.97;96690.88;5071991;28;20221;-56
2023/01/07 11:36:43;;;;;;;6.30;5.70;;;;;;;11.49;76.07;96690.28;5072360;28;20202;-56
2023/01/07 11:39:17;;;;;;;6.20;5.70;;;;;;;11.43;74.51;96685.59;5071689;28;20199;-56
2023/01/07 11:41:52;;;;;;;6.30;5.83;;;;;;;11.51;74.90;96677.75;5070719;28;20665;-55
2023/01/07 11:44:19;;;;;;;6.07;5.57;;;;;;;11.54;73.49;96671.31;5071473;28;20303;-55
2023/01/07 11:46:45;;;;;;;5.53;5.13;;;;;;;11.35;76.01;96664.28;5073517;28;20221;-56
2023/01/07 11:49:21;;;;;;;5.43;5.03;;;;;;;11.64;73.88;96658.84;5072585;28;20210;-56